Time;durP1;ratioP1;P1;durP2;ratioP2;P2;SDS_P1;SDS_P2;PMS_P1;PMS_P2;Temp;Humidity;BMP_temperature;BMP_pressure;BME280_temperature;BME280_humidity;BME280_pressure;Samples;Min_cycle;Max_cycle;Signal;HPM_P1;HPM_P2
2022/09/15 00:00:51;;;;;;;5.13;1.20;;;17.00;99.90;;;;;;5024626;28;20109;-40
2022/09/15 00:03:17;;;;;;;1.30;0.83;;;17.00;99.90;;;;;;5030021;28;20117;-39
2022/09/15 00:05:43;;;;;;;1.23;1.10;;;17.00;99.90;;;;;;5021110;28;20122;-39
2022/09/15 00:08:09;;;;;;;0.73;0.73;;;17.00;99.90;;;;;;5031924;28;20540;-40
2022/09/15 00:10:35;;;;;;;2.00;1.02;;;17.00;99.90;;;;;;5021904;28;20066;-38
2022/09/15 00:13:00;;;;;;;7.30;1.02;;;16.90;99.90;;;;;;5030251;28;20029;-39
2022/09/15 00:15:26;;;;;;;1.15;1.05;;;16.90;99.90;;;;;;5030705;28;20029;-30
2022/09/15 00:17:52;;;;;;;0.98;0.90;;;16.90;99.90;;;;;;5026532;28;20474;-40
2022/09/15 00:20:20;;;;;;;4.05;1.05;;;16.90;99.90;;;;;;5030339;28;20034;-36
2022/09/15 00:22:47;;;;;;;0.95;0.77;;;16.90;99.90;;;;;;5032164;28;20057;-40
2022/09/15 00:25:13;;;;;;;1.07;0.97;;;16.90;99.90;;;;;;5023335;28;20435;-34
2022/09/15 00:27:38;;;;;;;5.65;0.85;;;16.90;99.90;;;;;;5031226;28;20111;-38
2022/09/15 00:30:06;;;;;;;1.65;1.00;;;16.90;99.90;;;;;;5033884;28;20013;-34
2022/09/15 00:32:31;;;;;;;1.20;1.10;;;16.80;99.90;;;;;;5033594;28;20038;-37
2022/09/15 00:34:57;;;;;;;1.30;1.00;;;16.80;99.90;;;;;;5030050;28;20024;-34
2022/09/15 00:37:23;;;;;;;2.25;0.80;;;16.80;99.90;;;;;;5033247;28;20112;-36
2022/09/15 00:39:48;;;;;;;2.70;0.80;;;16.70;99.90;;;;;;5033021;28;20498;-32
2022/09/15 00:42:16;;;;;;;3.33;1.10;;;16.70;99.90;;;;;;5032107;28;20022;-34
2022/09/15 00:44:47;;;;;;;2.78;0.80;;;16.70;99.90;;;;;;5032762;28;20025;-32
2022/09/15 00:47:14;;;;;;;2.35;0.70;;;16.70;99.90;;;;;;5029181;28;20112;-35
2022/09/15 00:49:42;;;;;;;2.67;0.80;;;16.60;99.90;;;;;;5032697;28;20551;-34
2022/09/15 00:52:26;;;;;;;0.63;0.63;;;16.60;99.90;;;;;;5030176;28;20493;-33
2022/09/15 00:55:23;;;;;;;1.38;0.80;;;16.50;99.90;;;;;;5033077;28;20469;-32
2022/09/15 00:57:54;;;;;;;1.13;0.70;;;16.50;99.90;;;;;;5031256;28;20478;-31
2022/09/15 01:00:23;;;;;;;1.02;0.90;;;16.40;99.90;;;;;;5026330;28;20539;-34
2022/09/15 01:02:49;;;;;;;2.70;1.33;;;16.40;99.90;;;;;;5028451;28;20446;-40
2022/09/15 01:05:17;;;;;;;3.53;1.15;;;16.30;99.90;;;;;;5031596;28;20497;-32
2022/09/15 01:07:58;;;;;;;2.58;0.70;;;16.30;99.90;;;;;;5029951;28;20030;-33
2022/09/15 01:10:30;;;;;;;2.28;0.90;;;16.20;99.90;;;;;;5033407;28;20041;-40
2022/09/15 01:13:05;;;;;;;1.08;0.80;;;16.20;99.90;;;;;;5034041;28;20033;-41
2022/09/15 01:16:01;;;;;;;1.13;0.70;;;16.20;99.90;;;;;;5030876;28;20458;-38
2022/09/15 01:18:48;;;;;;;2.95;0.77;;;16.20;99.90;;;;;;5030938;28;20507;-33
2022/09/15 01:21:35;;;;;;;2.78;1.10;;;16.20;99.90;;;;;;5030996;28;20112;-34
2022/09/15 01:24:40;;;;;;;5.15;1.20;;;16.20;99.90;;;;;;5028846;28;20037;-35
2022/09/15 01:27:09;;;;;;;10.88;1.58;;;16.10;99.90;;;;;;5017035;28;20044;-38
2022/09/15 01:29:37;;;;;;;6.35;1.70;;;16.10;99.90;;;;;;5028709;28;20499;-33
2022/09/15 01:35:13;;;;;;;3.58;1.35;;;16.10;99.90;;;;;;5028469;28;20044;-33
2022/09/15 01:37:45;;;;;;;2.08;1.40;;;16.20;99.90;;;;;;5034152;28;20017;-36
2022/09/15 01:40:12;;;;;;;5.88;1.80;;;16.20;99.90;;;;;;5026425;28;20077;-37
2022/09/15 01:42:40;;;;;;;2.13;1.25;;;16.20;99.90;;;;;;5028848;28;20029;-37
2022/09/15 01:45:11;;;;;;;2.60;1.40;;;16.20;99.90;;;;;;5019717;28;20088;-42
2022/09/15 01:47:37;;;;;;;2.20;1.60;;;16.30;99.90;;;;;;5024257;28;20147;-43
2022/09/15 01:50:10;;;;;;;6.95;1.52;;;16.30;99.90;;;;;;5031220;28;20026;-35
2022/09/15 01:52:42;;;;;;;4.57;1.30;;;16.30;99.90;;;;;;5021921;28;20432;-39
2022/09/15 01:55:21;;;;;;;5.13;1.10;;;16.30;99.90;;;;;;5023816;28;20037;-35
2022/09/15 01:57:47;;;;;;;2.58;1.17;;;16.30;99.90;;;;;;5028176;28;20457;-40
2022/09/15 02:00:13;;;;;;;2.03;0.98;;;16.30;99.90;;;;;;5031498;28;20069;-40
2022/09/15 02:02:44;;;;;;;7.15;1.20;;;16.30;99.90;;;;;;5027043;28;20082;-30
2022/09/15 02:05:20;;;;;;;6.32;1.35;;;16.30;99.90;;;;;;5025733;28;20079;-32
2022/09/15 02:08:04;;;;;;;2.05;1.17;;;16.30;99.90;;;;;;5024562;28;20037;-33
2022/09/15 02:10:51;;;;;;;5.15;1.33;;;16.20;99.90;;;;;;5030719;28;20512;-40
2022/09/15 02:13:32;;;;;;;2.58;1.77;;;16.30;99.90;;;;;;5032466;28;20104;-41
2022/09/15 02:15:59;;;;;;;4.22;1.92;;;16.20;99.90;;;;;;5019950;28;20048;-34
2022/09/15 02:18:53;;;;;;;6.80;1.27;;;16.20;99.90;;;;;;5029761;28;20555;-39
2022/09/15 02:21:42;;;;;;;2.00;1.02;;;16.20;99.90;;;;;;5032584;28;20060;-44
2022/09/15 02:24:17;;;;;;;4.70;1.10;;;16.20;99.90;;;;;;5010302;28;20389;-34
2022/09/15 02:26:45;;;;;;;3.80;0.93;;;16.20;99.90;;;;;;5016953;28;20034;-37
2022/09/15 02:29:15;;;;;;;3.80;0.90;;;16.20;99.90;;;;;;5026902;28;20473;-38
2022/09/15 02:31:43;;;;;;;6.13;0.80;;;16.20;99.90;;;;;;5025375;28;20052;-46
2022/09/15 02:34:25;;;;;;;3.15;0.90;;;16.30;99.90;;;;;;5029285;28;20078;-35
2022/09/15 02:36:52;;;;;;;6.32;0.80;;;16.20;99.90;;;;;;5025160;28;20509;-42
2022/09/15 02:39:24;;;;;;;3.63;0.70;;;16.20;99.90;;;;;;5024664;28;20452;-35
2022/09/15 02:41:51;;;;;;;2.35;0.80;;;16.20;99.90;;;;;;5028626;28;20070;-34
2022/09/15 02:44:16;;;;;;;2.10;0.57;;;16.20;99.90;;;;;;5031676;28;20025;-33
2022/09/15 02:46:42;;;;;;;3.40;1.08;;;16.20;99.90;;;;;;5027691;28;20033;-33
2022/09/15 02:49:08;;;;;;;3.55;0.90;;;16.20;99.90;;;;;;5030787;28;20025;-39
2022/09/15 02:51:34;;;;;;;1.10;1.00;;;16.30;99.90;;;;;;5031586;28;20021;-41
2022/09/15 02:54:00;;;;;;;5.13;0.90;;;16.30;99.90;;;;;;5030992;28;20029;-40
2022/09/15 02:56:25;;;;;;;5.22;0.60;;;16.30;99.90;;;;;;5030732;28;20520;-41
2022/09/15 02:58:51;;;;;;;4.18;1.25;;;16.40;99.90;;;;;;5026909;28;20026;-42
2022/09/15 03:01:17;;;;;;;1.58;0.50;;;16.30;99.90;;;;;;5017325;28;20386;-39
2022/09/15 03:03:44;;;;;;;1.60;0.82;;;16.30;99.90;;;;;;5023399;28;20030;-40
2022/09/15 03:06:17;;;;;;;0.95;0.80;;;16.30;99.90;;;;;;5015647;28;20044;-39
2022/09/15 03:08:46;;;;;;;4.72;0.70;;;16.30;99.90;;;;;;5023198;28;20041;-40
2022/09/15 03:11:12;;;;;;;2.40;0.90;;;16.30;99.90;;;;;;5029313;28;20053;-39
2022/09/15 03:13:38;;;;;;;6.13;0.98;;;16.30;99.90;;;;;;5030975;28;20029;-39
2022/09/15 03:16:09;;;;;;;2.78;0.75;;;16.30;99.90;;;;;;5027150;28;20660;-40
2022/09/15 03:18:35;;;;;;;3.00;0.93;;;16.20;99.90;;;;;;5031805;28;20033;-45
2022/09/15 03:21:01;;;;;;;5.47;0.63;;;16.10;99.90;;;;;;5031656;28;20030;-41
2022/09/15 03:23:27;;;;;;;1.10;0.80;;;16.20;99.90;;;;;;5030771;28;20024;-58
2022/09/15 03:25:53;;;;;;;1.38;1.00;;;16.20;99.90;;;;;;5020974;28;20026;-57
2022/09/15 03:28:18;;;;;;;6.40;1.10;;;16.20;99.90;;;;;;5029472;28;20030;-41
2022/09/15 03:30:45;;;;;;;4.18;0.88;;;16.20;99.90;;;;;;5030498;28;20084;-41
2022/09/15 03:33:10;;;;;;;3.90;1.10;;;16.20;99.90;;;;;;5017198;28;20483;-39
2022/09/15 03:35:36;;;;;;;4.50;1.08;;;16.30;99.90;;;;;;5031430;28;20117;-40
2022/09/15 03:38:02;;;;;;;7.25;0.77;;;16.20;99.90;;;;;;5020658;28;20504;-39
2022/09/15 03:40:27;;;;;;;1.13;0.63;;;16.20;99.90;;;;;;5021727;28;20112;-40
2022/09/15 03:42:53;;;;;;;3.33;0.52;;;16.30;99.90;;;;;;5033535;28;20029;-42
2022/09/15 03:45:19;;;;;;;3.97;0.75;;;16.30;99.90;;;;;;5035388;28;20474;-41
2022/09/15 03:47:44;;;;;;;6.18;0.80;;;16.30;99.90;;;;;;5024276;28;20053;-45
2022/09/15 03:50:10;;;;;;;1.40;0.80;;;16.30;99.90;;;;;;5030997;28;20021;-33
2022/09/15 03:52:35;;;;;;;3.80;0.90;;;16.30;99.90;;;;;;5034314;28;20048;-34
2022/09/15 03:55:01;;;;;;;2.40;0.85;;;16.30;99.90;;;;;;5034851;28;20025;-36
2022/09/15 03:57:27;;;;;;;4.28;1.02;;;16.20;99.90;;;;;;5034265;28;20448;-32
2022/09/15 03:59:52;;;;;;;4.68;1.02;;;16.20;99.90;;;;;;5033188;28;20018;-42
2022/09/15 04:02:18;;;;;;;1.75;0.57;;;16.20;99.90;;;;;;5030879;28;20084;-41
2022/09/15 04:04:43;;;;;;;3.25;0.68;;;16.20;99.90;;;;;;5034909;28;20057;-35
2022/09/15 04:07:09;;;;;;;5.07;0.68;;;16.10;99.90;;;;;;5034488;28;20542;-31
2022/09/15 04:09:36;;;;;;;6.80;0.85;;;16.20;99.90;;;;;;5029149;28;20044;-50
2022/09/15 04:12:02;;;;;;;3.65;0.52;;;16.30;99.90;;;;;;5034553;28;20053;-40
2022/09/15 04:14:28;;;;;;;2.25;0.90;;;16.30;99.90;;;;;;5030458;28;20041;-41
2022/09/15 04:16:54;;;;;;;3.03;0.85;;;16.30;99.90;;;;;;5033849;28;20481;-31
2022/09/15 04:19:19;;;;;;;3.50;0.77;;;16.30;99.90;;;;;;5017474;28;20502;-30
2022/09/15 04:21:46;;;;;;;1.48;0.43;;;16.20;99.90;;;;;;5032912;28;20485;-34
2022/09/15 04:24:12;;;;;;;5.65;0.98;;;16.30;99.90;;;;;;5030686;28;20723;-30
2022/09/15 04:26:38;;;;;;;3.92;0.65;;;16.20;99.90;;;;;;5033295;28;20018;-30
2022/09/15 04:29:10;;;;;;;6.60;0.88;;;16.20;99.90;;;;;;5032701;28;20505;-33
2022/09/15 04:31:35;;;;;;;7.97;0.98;;;16.20;99.90;;;;;;5017340;28;20096;-31
2022/09/15 04:34:01;;;;;;;2.63;0.70;;;16.10;99.90;;;;;;5033235;28;20037;-34
2022/09/15 04:36:28;;;;;;;3.42;0.98;;;16.10;99.90;;;;;;5026089;28;20578;-34
2022/09/15 04:38:55;;;;;;;0.70;0.70;;;16.20;99.90;;;;;;5032627;28;20497;-35
2022/09/15 04:41:20;;;;;;;5.78;0.98;;;16.20;99.90;;;;;;5035209;28;20264;-32
2022/09/15 04:43:46;;;;;;;5.10;0.70;;;16.20;99.90;;;;;;5031110;28;20033;-32
2022/09/15 04:46:13;;;;;;;2.90;0.70;;;16.20;99.90;;;;;;5024872;28;20025;-33
2022/09/15 04:48:39;;;;;;;3.03;0.95;;;16.20;99.90;;;;;;5031080;28;20024;-33
2022/09/15 04:51:07;;;;;;;8.85;0.82;;;16.20;99.90;;;;;;5033080;28;20369;-31
2022/09/15 04:53:34;;;;;;;0.75;0.68;;;16.20;99.90;;;;;;5028687;28;20076;-42
2022/09/15 04:56:21;;;;;;;4.13;0.40;;;16.20;99.90;;;;;;5029547;28;20029;-41
2022/09/15 04:58:50;;;;;;;2.25;0.57;;;16.20;99.90;;;;;;5034079;28;20347;-35
2022/09/15 05:01:25;;;;;;;2.90;0.80;;;16.10;99.90;;;;;;5025681;28;20022;-37
2022/09/15 05:03:51;;;;;;;1.65;0.70;;;16.20;99.90;;;;;;5035057;28;20125;-35
2022/09/15 05:06:19;;;;;;;5.50;0.70;;;16.20;99.90;;;;;;5031488;28;20454;-33
2022/09/15 05:08:49;;;;;;;1.58;0.77;;;16.10;99.90;;;;;;5030070;28;20053;-32
2022/09/15 05:11:15;;;;;;;1.60;0.60;;;16.10;99.90;;;;;;5032265;28;20025;-35
2022/09/15 05:13:41;;;;;;;0.73;0.43;;;16.20;99.90;;;;;;5026325;28;20479;-37
2022/09/15 05:16:12;;;;;;;6.25;0.75;;;16.20;99.90;;;;;;5023597;28;20021;-34
2022/09/15 05:18:39;;;;;;;3.50;0.70;;;16.20;99.90;;;;;;5032665;28;20485;-32
2022/09/15 05:21:05;;;;;;;1.40;0.57;;;16.20;99.90;;;;;;5031983;28;20025;-34
2022/09/15 05:23:33;;;;;;;2.97;0.68;;;16.30;99.90;;;;;;5029755;28;20026;-34
2022/09/15 05:26:01;;;;;;;1.77;0.55;;;16.30;99.90;;;;;;5015040;28;20029;-33
2022/09/15 05:28:27;;;;;;;3.38;0.65;;;16.30;99.90;;;;;;5022984;28;20026;-36
2022/09/15 05:30:54;;;;;;;5.38;0.75;;;16.20;99.90;;;;;;5034133;28;20026;-35
2022/09/15 05:33:21;;;;;;;2.15;0.75;;;16.10;99.90;;;;;;5030600;28;20437;-35
2022/09/15 05:35:56;;;;;;;3.53;0.68;;;16.10;99.90;;;;;;5026669;28;20021;-35
2022/09/15 05:38:22;;;;;;;6.40;0.70;;;16.10;99.90;;;;;;5030360;28;20045;-35
2022/09/15 05:40:48;;;;;;;3.13;0.82;;;16.00;99.90;;;;;;5033194;28;20026;-37
2022/09/15 05:43:15;;;;;;;3.25;1.08;;;16.00;99.90;;;;;;5032749;28;20029;-33
2022/09/15 05:45:43;;;;;;;4.38;0.82;;;16.00;99.90;;;;;;5030617;28;20417;-36
2022/09/15 05:48:10;;;;;;;1.40;1.02;;;16.00;99.90;;;;;;5027236;28;20041;-39
2022/09/15 05:50:37;;;;;;;3.65;0.45;;;15.90;99.90;;;;;;5024673;28;20032;-42
2022/09/15 05:53:06;;;;;;;5.70;0.60;;;15.90;99.90;;;;;;5020527;28;20029;-40
2022/09/15 05:55:36;;;;;;;6.28;1.58;;;15.90;99.90;;;;;;5023643;28;20511;-39
2022/09/15 05:58:02;;;;;;;3.72;1.15;;;16.00;99.90;;;;;;5031873;28;20103;-39
2022/09/15 06:00:28;;;;;;;1.88;0.70;;;16.10;99.90;;;;;;5032130;28;20105;-41
2022/09/15 06:02:54;;;;;;;4.25;1.10;;;16.10;99.90;;;;;;5023809;28;20136;-42
2022/09/15 06:05:19;;;;;;;4.43;0.47;;;16.10;99.90;;;;;;5046963;28;20018;-40
2022/09/15 06:07:45;;;;;;;4.80;0.60;;;16.20;99.90;;;;;;5028785;28;20496;-41
2022/09/15 06:10:11;;;;;;;3.38;0.85;;;16.30;99.90;;;;;;5032138;28;20096;-42
2022/09/15 06:12:36;;;;;;;6.25;0.98;;;16.30;99.90;;;;;;5031931;28;20016;-39
2022/09/15 06:15:02;;;;;;;3.83;0.68;;;16.40;99.90;;;;;;5030913;28;20060;-41
2022/09/15 06:17:31;;;;;;;7.28;0.75;;;16.40;99.90;;;;;;5026652;28;20072;-42
2022/09/15 06:19:57;;;;;;;2.30;0.43;;;16.40;99.90;;;;;;5019337;28;20025;-40
2022/09/15 06:22:23;;;;;;;5.15;1.00;;;16.50;99.90;;;;;;5020291;28;20160;-36
2022/09/15 06:24:48;;;;;;;3.20;0.93;;;16.50;99.90;;;;;;5026136;28;20021;-40
2022/09/15 06:27:14;;;;;;;1.85;0.60;;;16.50;99.90;;;;;;5033497;28;20018;-39
2022/09/15 06:29:40;;;;;;;2.75;0.50;;;16.50;99.90;;;;;;5033311;28;20482;-70
2022/09/15 06:32:05;;;;;;;1.25;0.73;;;16.50;99.90;;;;;;5025337;28;20049;-40
2022/09/15 06:34:31;;;;;;;4.25;0.90;;;16.60;99.90;;;;;;5028881;28;20124;-41
2022/09/15 06:36:58;;;;;;;2.20;0.77;;;16.60;99.90;;;;;;5033069;28;20025;-40
2022/09/15 06:39:24;;;;;;;1.40;0.70;;;16.60;99.90;;;;;;5013486;28;20065;-40
2022/09/15 06:41:49;;;;;;;7.05;0.90;;;16.70;99.90;;;;;;5013346;28;20026;-39
2022/09/15 06:44:15;;;;;;;1.55;0.73;;;16.70;99.90;;;;;;5016802;28;20040;-40
2022/09/15 06:46:41;;;;;;;3.50;0.65;;;16.80;99.90;;;;;;5027569;28;20028;-39
2022/09/15 06:49:06;;;;;;;5.20;0.90;;;16.90;99.90;;;;;;5031219;28;20044;-40
2022/09/15 06:51:34;;;;;;;1.95;0.73;;;16.90;99.90;;;;;;5032440;28;20413;-39
2022/09/15 06:54:03;;;;;;;;;;;16.90;99.90;;;;;;5029616;28;20130;-42
2022/09/15 06:56:29;;;;;;;2.63;0.50;;;17.00;99.90;;;;;;5032992;28;19912;-42
2022/09/15 06:58:55;;;;;;;1.08;0.73;;;17.00;99.90;;;;;;4997471;28;20394;-42
2022/09/15 07:01:39;;;;;;;2.58;0.60;;;17.00;99.90;;;;;;5027265;28;20034;-40
2022/09/15 07:04:08;;;;;;;1.55;0.80;;;17.10;99.90;;;;;;5020743;28;20522;-42
2022/09/15 07:06:35;;;;;;;3.28;1.02;;;17.10;99.90;;;;;;5013335;28;20041;-39
2022/09/15 07:09:01;;;;;;;4.30;0.80;;;17.10;99.90;;;;;;5030266;28;20428;-40
2022/09/15 07:11:27;;;;;;;1.65;1.17;;;17.10;99.90;;;;;;5032767;28;20014;-42
2022/09/15 07:13:56;;;;;;;5.30;0.90;;;17.00;99.90;;;;;;5030367;28;20067;-43
2022/09/15 07:16:24;;;;;;;7.63;1.65;;;16.90;99.90;;;;;;5032811;28;20083;-41
2022/09/15 07:18:52;;;;;;;5.82;1.13;;;16.80;99.90;;;;;;5034341;28;20091;-41
2022/09/15 07:21:19;;;;;;;6.32;1.35;;;16.70;99.90;;;;;;5035048;28;20029;-40
2022/09/15 07:23:46;;;;;;;2.03;0.30;;;16.70;99.90;;;;;;5034697;28;20029;-43
2022/09/15 07:26:17;;;;;;;2.47;0.60;;;16.60;99.90;;;;;;5036617;28;20022;-39
2022/09/15 07:28:48;;;;;;;2.05;1.35;;;16.60;99.90;;;;;;5034552;28;20485;-40
2022/09/15 07:31:15;;;;;;;4.07;0.70;;;16.60;99.90;;;;;;5024253;28;20125;-41
2022/09/15 07:33:41;;;;;;;4.03;0.65;;;16.50;99.90;;;;;;5032086;28;20493;-42
2022/09/15 07:36:08;;;;;;;3.08;1.08;;;16.50;99.90;;;;;;5031350;28;20048;-40
2022/09/15 07:38:37;;;;;;;1.90;0.57;;;16.50;99.90;;;;;;5032319;28;20041;-56
2022/09/15 07:43:57;;;;;;;13.40;0.98;;;16.70;99.90;;;;;;5030499;28;20045;-40
2022/09/15 07:46:24;;;;;;;2.30;0.95;;;16.70;99.90;;;;;;5030570;28;20488;-41
2022/09/15 07:48:53;;;;;;;3.63;0.57;;;16.70;99.90;;;;;;5031679;28;20026;-35
2022/09/15 07:51:19;;;;;;;6.68;0.95;;;16.80;99.90;;;;;;5031139;28;20040;-31
2022/09/15 07:53:47;;;;;;;6.85;0.88;;;16.80;99.90;;;;;;5028020;28;20488;-32
2022/09/15 07:56:13;;;;;;;1.27;0.63;;;16.70;99.90;;;;;;5033939;28;20030;-34
2022/09/15 07:58:39;;;;;;;3.65;0.95;;;16.70;99.90;;;;;;5035966;28;20539;-33
2022/09/15 08:01:07;;;;;;;2.15;0.65;;;16.70;99.90;;;;;;5029331;28;20086;-36
2022/09/15 08:03:33;;;;;;;9.15;0.93;;;16.70;99.90;;;;;;5035997;28;20471;-35
2022/09/15 08:05:59;;;;;;;6.65;0.80;;;16.80;99.90;;;;;;5031268;28;21478;-34
2022/09/15 08:08:26;;;;;;;2.42;0.70;;;16.90;99.90;;;;;;5029057;28;20100;-33
2022/09/15 08:10:51;;;;;;;5.68;0.82;;;16.90;99.90;;;;;;5020897;28;20401;-34
2022/09/15 08:13:17;;;;;;;6.82;1.42;;;16.90;99.90;;;;;;5030118;28;20032;-35
2022/09/15 08:15:43;;;;;;;6.25;1.10;;;17.00;99.90;;;;;;5029730;28;20033;-38
2022/09/15 08:18:09;;;;;;;8.23;0.60;;;17.00;99.90;;;;;;5034570;28;20490;-35
2022/09/15 08:20:38;;;;;;;5.22;2.00;;;17.00;99.90;;;;;;5032538;28;20034;-40
2022/09/15 08:23:03;;;;;;;4.88;0.85;;;17.00;99.90;;;;;;5033115;28;20022;-40
2022/09/15 08:25:29;;;;;;;5.68;0.90;;;17.00;99.90;;;;;;5030795;28;20044;-40
2022/09/15 08:27:55;;;;;;;5.88;0.80;;;17.00;99.90;;;;;;5048007;28;20018;-40
2022/09/15 08:30:21;;;;;;;3.78;0.80;;;16.90;99.90;;;;;;5018694;28;20032;-40
2022/09/15 08:32:47;;;;;;;5.25;0.80;;;16.80;99.90;;;;;;5028193;28;20482;-40
2022/09/15 08:35:14;;;;;;;6.00;0.65;;;16.70;99.90;;;;;;5016198;28;20121;-40
2022/09/15 08:37:40;;;;;;;8.23;0.87;;;16.70;99.90;;;;;;5015880;28;20047;-40
2022/09/15 08:40:08;;;;;;;1.00;0.57;;;16.60;99.90;;;;;;5028631;28;20288;-39
2022/09/15 08:42:34;;;;;;;2.42;0.82;;;16.70;99.90;;;;;;5032918;28;20060;-38
2022/09/15 08:45:08;;;;;;;5.28;0.80;;;16.60;99.90;;;;;;5058109;28;20057;-41
2022/09/15 08:47:39;;;;;;;1.15;0.30;;;16.60;99.90;;;;;;5032456;28;20539;-41
2022/09/15 08:50:33;;;;;;;3.38;0.40;;;16.50;99.90;;;;;;5033870;28;20025;-40
2022/09/15 08:53:11;;;;;;;9.95;1.08;;;16.40;99.90;;;;;;5033817;28;20061;-41
2022/09/15 08:55:53;;;;;;;1.92;0.80;;;16.20;99.90;;;;;;5033139;28;20470;-40
2022/09/15 08:58:28;;;;;;;4.28;0.43;;;16.10;99.90;;;;;;5030710;28;20488;-40
2022/09/15 09:01:07;;;;;;;1.17;0.43;;;16.10;99.90;;;;;;5029267;28;20021;-36
2022/09/15 09:04:00;;;;;;;2.35;0.30;;;16.10;99.90;;;;;;5033390;28;20076;-35
2022/09/15 09:06:35;;;;;;;6.07;0.60;;;16.10;99.90;;;;;;5033677;28;20080;-49
2022/09/15 09:09:16;;;;;;;1.42;0.68;;;16.20;99.90;;;;;;5030018;28;20366;-39
2022/09/15 09:12:00;;;;;;;0.80;0.50;;;16.20;99.90;;;;;;5034732;28;20022;-38
2022/09/15 09:14:44;;;;;;;2.47;0.60;;;16.40;99.90;;;;;;5033135;28;20516;-39
2022/09/15 09:17:24;;;;;;;4.10;0.60;;;16.50;99.90;;;;;;5034849;28;20484;-41
2022/09/15 09:20:11;;;;;;;4.15;1.20;;;16.70;99.90;;;;;;5034667;28;20021;-40
2022/09/15 09:22:42;;;;;;;3.58;0.38;;;16.90;99.90;;;;;;5022607;28;20037;-40
2022/09/15 09:25:15;;;;;;;10.35;0.73;;;17.10;99.90;;;;;;5032573;28;20013;-40
2022/09/15 09:27:42;;;;;;;1.38;0.50;;;17.20;99.90;;;;;;5034424;28;20469;-42
2022/09/15 09:30:18;;;;;;;5.35;1.00;;;17.30;99.90;;;;;;5032835;28;20409;-40
2022/09/15 09:32:56;;;;;;;1.50;0.63;;;17.40;99.90;;;;;;5033515;28;20476;-33
2022/09/15 09:35:35;;;;;;;1.90;0.40;;;17.50;99.90;;;;;;5026396;28;20021;-35
2022/09/15 09:38:01;;;;;;;0.60;0.47;;;17.60;99.90;;;;;;5020935;28;20034;-31
2022/09/15 09:40:29;;;;;;;3.80;0.50;;;17.60;99.90;;;;;;5031524;28;20057;-35
2022/09/15 09:42:55;;;;;;;5.45;0.65;;;17.70;99.90;;;;;;5032069;28;20493;-31
2022/09/15 09:45:22;;;;;;;3.92;0.60;;;17.60;99.90;;;;;;5033078;28;20086;-34
2022/09/15 09:47:48;;;;;;;2.67;0.50;;;17.70;99.90;;;;;;5034185;28;20025;-32
2022/09/15 09:50:38;;;;;;;6.22;1.75;;;17.80;99.90;;;;;;5033013;28;20042;-33
2022/09/15 09:53:19;;;;;;;1.52;0.50;;;17.90;99.90;;;;;;5031814;28;20564;-35
2022/09/15 09:55:45;;;;;;;3.33;0.43;;;17.80;99.90;;;;;;5025724;28;20034;-32
2022/09/15 09:58:16;;;;;;;4.47;0.50;;;17.90;99.90;;;;;;5020324;28;20029;-33
2022/09/15 10:00:42;;;;;;;3.80;0.80;;;17.80;99.90;;;;;;5033917;28;20439;-36
2022/09/15 10:03:13;;;;;;;5.47;0.70;;;18.00;99.90;;;;;;5031658;28;20025;-32
2022/09/15 10:05:39;;;;;;;3.10;0.55;;;18.00;99.90;;;;;;5025899;28;20040;-33
2022/09/15 10:08:04;;;;;;;2.13;0.40;;;18.00;99.90;;;;;;5032793;28;20474;-33
2022/09/15 10:10:34;;;;;;;3.33;0.80;;;18.00;99.90;;;;;;5032500;28;20104;-32
2022/09/15 10:13:02;;;;;;;9.20;1.23;;;18.10;99.90;;;;;;5021702;28;20022;-33
2022/09/15 10:15:33;;;;;;;5.18;0.90;;;18.30;99.90;;;;;;5017398;28;20439;-36
2022/09/15 10:18:31;;;;;;;4.20;0.47;;;18.30;99.90;;;;;;5032407;28;20021;-35
2022/09/15 10:20:59;;;;;;;2.28;0.60;;;18.60;99.90;;;;;;5030384;28;20038;-33
2022/09/15 10:23:33;;;;;;;;;;;18.70;99.90;;;;;;5032647;28;20025;-35
2022/09/15 10:26:30;;;;;;;3.42;0.70;;;18.90;99.90;;;;;;5031743;28;19908;-43
2022/09/15 10:29:11;;;;;;;;;;;18.90;99.90;;;;;;5032284;28;20497;-40
2022/09/15 10:34:29;;;;;;;6.82;0.77;;;19.00;99.90;;;;;;5033389;28;20585;-30
2022/09/15 10:37:11;;;;;;;3.30;0.47;;;19.00;99.90;;;;;;5026525;28;20033;-35
2022/09/15 10:39:53;;;;;;;2.17;0.40;;;19.00;99.90;;;;;;5030526;28;20059;-40
2022/09/15 10:42:39;;;;;;;0.80;0.57;;;19.00;99.90;;;;;;5030552;28;20391;-39
2022/09/15 10:45:08;;;;;;;4.13;1.52;;;19.10;99.90;;;;;;5025131;28;20401;-40
2022/09/15 10:47:49;;;;;;;1.35;0.50;;;19.20;99.90;;;;;;5024916;28;20033;-38
2022/09/15 10:50:27;;;;;;;2.15;0.90;;;19.10;99.90;;;;;;5024788;28;20524;-37
2022/09/15 10:53:11;;;;;;;1.85;0.40;;;19.10;99.90;;;;;;5027570;28;20346;-39
2022/09/15 10:56:02;;;;;;;3.05;0.60;;;19.20;99.90;;;;;;5028095;28;20033;-37
2022/09/15 10:59:04;;;;;;;3.22;0.40;;;19.00;99.90;;;;;;5031855;28;20439;-38
2022/09/15 11:01:29;;;;;;;4.60;0.50;;;19.00;99.90;;;;;;5031827;28;20374;-39
2022/09/15 11:04:23;;;;;;;4.80;0.50;;;19.00;99.90;;;;;;5026464;28;20025;-42
2022/09/15 11:06:49;;;;;;;5.43;0.60;;;18.80;99.90;;;;;;5021119;28;20405;-37
2022/09/15 11:09:37;;;;;;;2.63;0.77;;;18.70;99.60;;;;;;5030387;28;20029;-42
2022/09/15 11:12:19;;;;;;;0.70;0.50;;;18.70;99.90;;;;;;5031580;28;20504;-40
2022/09/15 11:14:49;;;;;;;1.52;0.70;;;19.00;99.90;;;;;;5030872;28;20581;-40
2022/09/15 11:17:39;;;;;;;2.50;0.52;;;19.50;99.90;;;;;;5024702;28;20041;-41
2022/09/15 11:20:49;;;;;;;5.38;0.60;;;19.60;99.90;;;;;;5029537;28;20124;-39
2022/09/15 11:23:17;;;;;;;3.67;0.75;;;19.40;99.60;;;;;;5020218;28;20038;-40
2022/09/15 11:25:48;;;;;;;2.70;0.80;;;19.20;99.90;;;;;;5012902;28;20101;-39
2022/09/15 11:28:32;;;;;;;4.47;0.60;;;19.00;99.90;;;;;;5013479;28;20334;-39
2022/09/15 11:31:03;;;;;;;5.10;0.80;;;18.90;99.90;;;;;;5031731;28;20025;-34
2022/09/15 11:33:36;;;;;;;5.35;0.80;;;18.90;99.90;;;;;;5029588;28;20091;-34
2022/09/15 11:36:08;;;;;;;3.58;0.52;;;19.10;99.40;;;;;;5031625;28;20517;-34
2022/09/15 11:38:57;;;;;;;3.10;0.70;;;19.50;99.30;;;;;;5023799;28;20502;-32
2022/09/15 11:42:03;;;;;;;3.33;0.50;;;19.90;98.00;;;;;;5026988;28;20032;-33
2022/09/15 11:44:32;;;;;;;0.73;0.40;;;20.20;97.10;;;;;;5022221;28;20034;-33
2022/09/15 11:47:06;;;;;;;2.38;0.32;;;20.20;95.80;;;;;;5032055;28;20163;-37
2022/09/15 11:49:39;;;;;;;2.80;0.65;;;20.20;96.50;;;;;;5031459;28;20045;-41
2022/09/15 11:52:13;;;;;;;2.92;1.00;;;20.50;96.70;;;;;;5032400;28;20088;-39
2022/09/15 11:54:55;;;;;;;3.97;0.60;;;20.80;96.80;;;;;;5029539;28;20037;-41
2022/09/15 11:57:29;;;;;;;1.73;0.50;;;20.80;96.10;;;;;;5032605;28;20358;-40
2022/09/15 12:00:14;;;;;;;6.85;0.73;;;20.80;95.80;;;;;;5025704;28;20576;-40
2022/09/15 12:03:12;;;;;;;1.48;0.47;;;20.80;95.90;;;;;;5026300;28;20041;-37
2022/09/15 12:05:44;;;;;;;2.95;1.00;;;21.00;96.50;;;;;;5034354;28;20036;-45
2022/09/15 12:08:38;;;;;;;2.42;0.55;;;21.00;96.60;;;;;;5030898;28;20060;-38
2022/09/15 12:11:10;;;;;;;4.90;0.88;;;20.80;96.90;;;;;;5048211;28;20473;-39
2022/09/15 12:13:38;;;;;;;4.68;0.50;;;20.70;97.20;;;;;;5035996;28;20468;-38
2022/09/15 12:16:05;;;;;;;6.03;1.30;;;20.80;97.20;;;;;;5034624;28;20029;-40
2022/09/15 12:18:49;;;;;;;2.47;0.43;;;20.80;96.50;;;;;;5034329;28;20084;-39
2022/09/15 12:21:21;;;;;;;3.70;0.68;;;20.80;96.30;;;;;;5027237;28;20551;-39
2022/09/15 12:24:01;;;;;;;1.25;0.88;;;20.70;96.50;;;;;;5033258;28;20057;-36
2022/09/15 12:26:28;;;;;;;3.25;0.40;;;20.50;96.80;;;;;;5032702;28;20393;-39
2022/09/15 12:29:02;;;;;;;4.00;0.67;;;20.30;97.60;;;;;;5024902;28;20021;-55
2022/09/15 12:31:38;;;;;;;5.57;0.57;;;20.10;97.60;;;;;;5031712;28;20545;-55
2022/09/15 12:34:23;;;;;;;6.22;0.60;;;19.60;98.90;;;;;;5034035;28;20029;-55
2022/09/15 12:36:53;;;;;;;6.25;0.90;;;19.10;99.70;;;;;;5035409;28;20410;-34
2022/09/15 12:39:27;;;;;;;2.70;0.40;;;18.90;99.90;;;;;;5029259;28;20056;-32
2022/09/15 12:41:59;;;;;;;5.28;0.73;;;18.60;99.90;;;;;;5032556;28;20037;-36
2022/09/15 12:44:49;;;;;;;0.85;0.52;;;18.40;99.90;;;;;;5029491;28;20061;-43
2022/09/15 12:47:36;;;;;;;7.75;0.68;;;18.40;99.90;;;;;;5019462;28;20510;-36
2022/09/15 12:50:21;;;;;;;3.70;0.60;;;18.30;99.90;;;;;;5028797;28;20033;-34
2022/09/15 12:52:56;;;;;;;2.80;0.68;;;18.30;99.90;;;;;;5032149;28;20028;-33
2022/09/15 12:55:27;;;;;;;4.45;0.60;;;18.20;99.90;;;;;;5015580;28;20026;-39
2022/09/15 12:57:56;;;;;;;2.25;0.70;;;18.20;99.90;;;;;;5015205;28;20062;-38
2022/09/15 13:00:25;;;;;;;4.47;0.88;;;18.00;99.90;;;;;;5015268;28;20037;-39
2022/09/15 13:02:51;;;;;;;6.10;0.75;;;17.90;99.90;;;;;;5022866;28;20037;-39
2022/09/15 13:05:41;;;;;;;1.67;0.45;;;17.90;99.90;;;;;;5029286;28;20038;-39
2022/09/15 13:08:28;;;;;;;4.03;0.70;;;17.80;99.90;;;;;;5017464;28;20030;-40
2022/09/15 13:11:03;;;;;;;6.65;1.25;;;17.70;99.90;;;;;;5031710;28;20022;-39
2022/09/15 13:13:54;;;;;;;7.45;0.73;;;17.70;99.90;;;;;;5031531;28;20079;-40
2022/09/15 13:16:47;;;;;;;1.67;0.80;;;17.70;99.90;;;;;;5034331;28;20385;-39
2022/09/15 13:19:31;;;;;;;1.95;0.57;;;17.80;99.90;;;;;;5032236;28;20041;-40